Time;durP1;ratioP1;P1;durP2;ratioP2;P2;SDS_P1;SDS_P2;PMS_P1;PMS_P2;Temp;Humidity;BMP_temperature;BMP_pressure;BME280_temperature;BME280_humidity;BME280_pressure;Samples;Min_cycle;Max_cycle;Signal;HPM_P1;HPM_P2
2022/10/08 00:08:18;;;;;;;0.52;0.30;;;;;;;17.99;100.00;101146.72;21213499;27;20462;-76
2022/10/08 00:18:20;;;;;;;0.95;0.50;;;;;;;17.68;100.00;101092.78;21213285;27;20057;-76
2022/10/08 00:28:21;;;;;;;0.32;0.32;;;;;;;17.97;100.00;101138.78;21134544;27;20499;-76
2022/10/08 00:38:23;;;;;;;0.40;0.40;;;;;;;17.97;100.00;101119.06;21212333;27;20065;-76
2022/10/08 00:48:24;;;;;;;0.77;0.50;;;;;;;17.98;100.00;101134.22;21211975;27;20043;-76
2022/10/08 00:58:27;;;;;;;0.65;0.40;;;;;;;17.96;100.00;101147.84;21211329;27;20047;-77
2022/10/08 01:08:31;;;;;;;0.45;0.35;;;;;;;17.96;100.00;101130.81;21209648;27;20051;-76
2022/10/08 01:18:33;;;;;;;0.67;0.47;;;;;;;17.95;100.00;101110.25;21193383;27;20047;-76
2022/10/08 01:28:45;;;;;;;0.63;0.38;;;;;;;17.94;100.00;101122.88;21197516;27;20071;-76
2022/10/08 01:38:53;;;;;;;0.50;0.30;;;;;;;17.95;100.00;101113.81;21225938;27;20407;-76
2022/10/08 01:49:02;;;;;;;0.73;0.40;;;;;;;17.70;100.00;101082.75;21223599;27;20039;-76
2022/10/08 01:59:09;;;;;;;1.00;0.45;;;;;;;17.72;100.00;101102.31;21222249;27;20047;-76
2022/10/08 02:09:14;;;;;;;0.73;0.50;;;;;;;17.83;100.00;101126.47;21223510;27;20039;-76
2022/10/08 02:19:28;;;;;;;0.63;0.30;;;;;;;17.71;100.00;101106.00;21152013;27;20126;-76
2022/10/08 02:29:36;;;;;;;0.50;0.32;;;;;;;17.85;100.00;101142.50;21220648;27;20082;-76
2022/10/08 02:39:41;;;;;;;0.43;0.30;;;;;;;17.94;100.00;101148.94;21218929;27;20054;-76
2022/10/08 02:49:47;;;;;;;0.57;0.40;;;;;;;17.93;100.00;101152.63;21218376;27;20058;-76
2022/10/08 02:59:49;;;;;;;0.70;0.38;;;;;;;17.75;100.00;101120.91;21217868;27;20054;-76
2022/10/08 03:09:53;;;;;;;0.47;0.40;;;;;;;17.92;100.00;101159.00;21216913;27;20055;-76
2022/10/08 03:19:56;;;;;;;0.75;0.50;;;;;;;17.93;100.00;101166.09;21126379;27;20511;-76
2022/10/08 03:29:57;;;;;;;0.22;0.22;;;;;;;17.92;100.00;101172.47;21216792;27;20134;-76
2022/10/08 03:39:58;;;;;;;0.82;0.40;;;;;;;17.92;100.00;101175.16;21214762;27;20468;-76
2022/10/08 03:50:00;;;;;;;0.47;0.22;;;;;;;17.91;100.00;101179.72;21215057;27;20143;-76
2022/10/08 04:00:02;;;;;;;0.63;0.30;;;;;;;17.90;100.00;101190.59;21214657;27;20051;-76
2022/10/08 04:10:05;;;;;;;0.38;0.32;;;;;;;17.90;100.00;101201.38;21214253;27;20049;-76
2022/10/08 04:20:07;;;;;;;0.47;0.30;;;;;;;17.90;100.00;101213.00;21135579;27;20121;-76
2022/10/08 04:30:09;;;;;;;0.93;0.50;;;;;;;17.89;100.00;101211.28;21212878;27;20061;-76
2022/10/08 04:40:10;;;;;;;0.30;0.30;;;;;;;17.89;100.00;101205.06;21210978;27;20055;-76
2022/10/08 04:50:11;;;;;;;0.45;0.30;;;;;;;17.89;100.00;101221.22;21211618;27;20047;-76
2022/10/08 05:00:13;;;;;;;0.30;0.20;;;;;;;17.89;100.00;101215.81;21010813;27;20084;-76
2022/10/08 05:10:19;;;;;;;0.32;0.28;;;;;;;17.89;100.00;101215.81;20761519;27;20050;-76
2022/10/08 05:20:20;;;;;;;0.52;0.30;;;;;;;17.88;100.00;101230.28;20749538;27;20045;-76
2022/10/08 05:30:22;;;;;;;0.90;0.20;;;;;;;17.87;100.00;101237.47;20799584;27;20053;-76
2022/10/08 05:40:23;;;;;;;0.43;0.30;;;;;;;17.88;100.00;101259.91;20782376;27;20080;-76
2022/10/08 05:50:25;;;;;;;0.50;0.20;;;;;;;17.88;100.00;101263.44;20725182;27;20078;-77
2022/10/08 06:00:26;;;;;;;0.50;0.20;;;;;;;17.87;100.00;101261.72;20768788;27;20084;-77
2022/10/08 06:10:30;;;;;;;0.20;0.20;;;;;;;17.87;100.00;101272.50;20848608;27;20062;-76
2022/10/08 06:20:35;;;;;;;0.90;0.35;;;;;;;17.51;100.00;101240.41;21177397;27;20107;-76
2022/10/08 06:30:40;;;;;;;0.60;0.40;;;;;;;17.87;100.00;101312.06;21221384;27;20481;-76
2022/10/08 06:40:42;;;;;;;;;;;;;;;17.86;100.00;101327.34;21117665;27;20056;-76
2022/10/08 06:50:43;;;;;;;0.57;0.20;;;;;;;17.87;100.00;101352.47;20906122;27;19981;-77
2022/10/08 07:00:45;;;;;;;0.22;0.22;;;;;;;17.86;100.00;101367.75;20870472;27;20481;-76
2022/10/08 07:10:46;;;;;;;0.50;0.30;;;;;;;17.87;100.00;101379.38;20889787;27;20050;-76
2022/10/08 07:20:56;;;;;;;0.55;0.38;;;;;;;17.54;100.00;101337.06;21198237;27;20054;-76
2022/10/08 07:31:04;;;;;;;0.38;0.35;;;;;;;17.83;100.00;101401.19;21217012;27;20126;-76
2022/10/08 07:41:07;;;;;;;0.35;0.20;;;;;;;17.95;100.00;101425.41;21215341;27;20049;-76
2022/10/08 07:51:17;;;;;;;0.65;0.38;;;;;;;17.98;100.00;101447.59;21215667;27;20078;-76
2022/10/08 08:01:20;;;;;;;0.40;0.22;;;;;;;17.99;100.00;101434.97;21213959;27;20054;-76
2022/10/08 08:11:23;;;;;;;0.50;0.40;;;;;;;18.04;100.00;101454.31;21104036;27;20127;-76
2022/10/08 08:21:27;;;;;;;0.43;0.30;;;;;;;18.07;100.00;101469.41;21211633;27;20091;-76
2022/10/08 08:31:37;;;;;;;0.50;0.30;;;;;;;18.07;100.00;101488.25;21213036;27;20051;-76
2022/10/08 08:41:50;;;;;;;0.40;0.30;;;;;;;18.08;100.00;101504.28;21150496;27;20408;-77
2022/10/08 08:51:52;;;;;;;0.30;0.30;;;;;;;17.74;100.00;101471.94;20736228;27;20052;-77
2022/10/08 09:02:03;;;;;;;0.80;0.68;;;;;;;18.05;100.00;101527.94;20729037;27;20050;-77
2022/10/08 09:12:23;;;;;;;0.20;0.20;;;;;;;17.62;100.00;101472.91;20733630;27;20090;-76
2022/10/08 09:22:36;;;;;;;0.57;0.30;;;;;;;18.03;100.00;101551.47;20716348;27;20153;-76
2022/10/08 09:32:37;;;;;;;0.40;0.30;;;;;;;18.02;100.00;101561.38;20731358;27;20493;-76
2022/10/08 09:42:39;;;;;;;0.70;0.32;;;;;;;18.01;100.00;101578.50;20711977;27;20591;-76
2022/10/08 09:52:41;;;;;;;0.45;0.30;;;;;;;18.01;100.00;101589.28;20735026;27;20131;-75
2022/10/08 10:02:43;;;;;;;1.13;0.40;;;;;;;17.91;100.00;101578.38;20753248;27;20049;-76
2022/10/08 10:12:51;;;;;;;1.48;0.40;;;;;;;17.74;100.00;101563.50;20757519;27;20053;-75
2022/10/08 10:23:31;;;;;;;3.65;0.90;;;;;;;18.05;100.00;101620.41;20795041;27;20140;-75
2022/10/08 10:33:36;;;;;;;3.35;1.10;;;;;;;18.03;100.00;101618.81;20779411;27;20053;-75
2022/10/08 10:43:48;;;;;;;4.20;0.90;;;;;;;18.03;100.00;101621.50;20789500;27;20052;-75
2022/10/08 10:54:20;;;;;;;2.22;0.70;;;;;;;18.03;100.00;101627.75;20815645;27;20524;-75
2022/10/08 11:04:43;;;;;;;3.38;0.60;;;;;;;18.02;100.00;101631.41;20775790;27;20061;-76
2022/10/08 11:14:56;;;;;;;1.55;0.55;;;;;;;18.04;100.00;101642.94;20798947;27;20080;-76
2022/10/08 11:25:13;;;;;;;2.65;0.70;;;;;;;18.03;100.00;101652.00;20796807;27;20443;-76
2022/10/08 11:35:36;;;;;;;1.55;0.50;;;;;;;18.04;100.00;101650.16;20751094;27;20041;-76
2022/10/08 11:45:44;;;;;;;3.00;0.55;;;;;;;17.86;100.00;101634.41;20731928;27;20049;-76
2022/10/08 11:55:53;;;;;;;1.63;0.50;;;;;;;18.03;100.00;101670.84;20784908;27;20077;-76
2022/10/08 12:06:19;;;;;;;1.70;0.60;;;;;;;17.86;100.00;101641.63;20753702;27;20063;-75
2022/10/08 12:16:22;;;;;;;1.30;0.50;;;;;;;18.03;100.00;101665.47;20734990;27;20054;-76
2022/10/08 12:26:23;;;;;;;2.08;0.70;;;;;;;18.05;100.00;101676.13;20758498;27;20072;-76
2022/10/08 12:36:40;;;;;;;1.40;0.60;;;;;;;18.05;100.00;101679.69;20731446;27;20053;-76
2022/10/08 12:46:53;;;;;;;0.75;0.75;;;;;;;18.05;100.00;101687.75;20738336;27;20132;-76
2022/10/08 12:56:56;;;;;;;1.27;0.40;;;;;;;17.77;100.00;101643.19;20789236;27;20050;-75
2022/10/08 13:06:57;;;;;;;1.13;0.47;;;;;;;18.06;100.00;101707.50;20756492;27;20054;-76
2022/10/08 13:16:59;;;;;;;5.07;0.90;;;;;;;18.13;100.00;101715.97;20727696;27;20132;-79
2022/10/08 13:27:00;;;;;;;2.25;0.60;;;;;;;18.21;100.00;101733.25;20796047;27;20045;-80
2022/10/08 13:37:05;;;;;;;5.22;1.05;;;;;;;18.30;100.00;101730.81;20735139;27;20054;-76
2022/10/08 13:47:14;;;;;;;6.93;1.53;;;;;;;18.35;100.00;101740.28;20783676;27;20048;-75
2022/10/08 13:57:16;;;;;;;3.78;1.23;;;;;;;18.17;100.00;101717.47;20741797;27;20065;-75
2022/10/08 14:07:21;;;;;;;4.22;1.00;;;;;;;18.15;100.00;101716.72;20754297;27;20513;-77
2022/10/08 14:17:23;;;;;;;3.25;1.10;;;;;;;18.46;100.00;101773.63;20729468;27;20056;-75
2022/10/08 14:27:25;;;;;;;5.75;1.58;;;;;;;18.50;100.00;101767.00;20751613;27;20126;-74
2022/10/08 14:37:26;;;;;;;4.20;1.38;;;;;;;18.47;100.00;101764.56;20736674;27;20057;-75
2022/10/08 14:47:27;;;;;;;2.55;1.30;;;;;;;18.62;100.00;101790.34;20741325;27;20065;-75
2022/10/08 14:57:29;;;;;;;5.90;1.70;;;;;;;18.61;100.00;101804.81;20718838;27;20076;-75
2022/10/08 15:07:31;;;;;;;4.35;1.30;;;;;;;18.37;100.00;101792.25;20735909;27;20049;-75
2022/10/08 15:17:32;;;;;;;4.80;1.30;;;;;;;18.48;100.00;101821.06;20713965;27;20053;-75
2022/10/08 15:27:34;;;;;;;3.05;1.50;;;;;;;18.43;100.00;101839.44;20706933;27;20528;-75
2022/10/08 15:37:36;;;;;;;2.95;1.27;;;;;;;18.29;100.00;101832.41;20700578;27;20152;-76
2022/10/08 15:47:37;;;;;;;3.58;1.30;;;;;;;17.83;100.00;101756.72;20717854;27;20057;-75
2022/10/08 15:57:39;;;;;;;3.10;1.17;;;;;;;18.34;100.00;101861.69;20715962;27;20407;-75
2022/10/08 16:07:40;;;;;;;3.55;1.33;;;;;;;18.33;100.00;101881.53;20746555;27;20054;-75
2022/10/08 16:17:42;;;;;;;2.78;1.20;;;;;;;18.31;100.00;101878.09;20716241;27;20045;-75
2022/10/08 16:27:44;;;;;;;2.50;1.20;;;;;;;18.27;100.00;101893.66;20741312;27;20189;-75
2022/10/08 16:37:46;;;;;;;2.88;1.40;;;;;;;18.28;100.00;101906.16;20723672;27;20497;-75
2022/10/08 16:47:48;;;;;;;3.35;1.40;;;;;;;18.26;100.00;101918.91;20720752;27;20541;-75
2022/10/08 16:57:49;;;;;;;3.65;1.15;;;;;;;18.25;100.00;101933.34;20787000;27;20061;-75
2022/10/08 17:07:52;;;;;;;2.97;1.20;;;;;;;18.24;100.00;101951.34;20736672;27;20091;-75
2022/10/08 17:17:53;;;;;;;3.28;1.08;;;;;;;18.22;100.00;101966.75;20747587;27;20049;-76
2022/10/08 17:27:56;;;;;;;2.10;1.20;;;;;;;18.21;100.00;101981.22;21214720;27;20043;-76
2022/10/08 17:37:57;;;;;;;2.67;1.10;;;;;;;18.21;100.00;101988.44;21223490;27;20546;-75
2022/10/08 17:47:58;;;;;;;2.42;1.00;;;;;;;18.18;100.00;102010.25;21225327;27;20067;-76
2022/10/08 17:58:00;;;;;;;2.72;1.30;;;;;;;17.87;100.00;101964.75;21181179;27;20100;-76
2022/10/08 18:08:02;;;;;;;4.13;1.15;;;;;;;18.08;100.00;102010.88;21224031;27;20064;-77
2022/10/08 18:18:03;;;;;;;2.22;1.40;;;;;;;18.13;100.00;102037.50;21223788;27;20183;-76
2022/10/08 18:28:05;;;;;;;3.22;1.23;;;;;;;17.83;100.00;101992.88;21221150;27;20062;-75
2022/10/08 18:38:06;;;;;;;2.90;1.15;;;;;;;18.10;100.00;102052.06;21221464;27;20039;-76
2022/10/08 18:48:08;;;;;;;2.50;1.00;;;;;;;18.09;100.00;102069.19;21219758;27;20045;-76
2022/10/08 18:58:09;;;;;;;3.15;1.00;;;;;;;18.09;100.00;102069.19;21153213;27;20059;-76
2022/10/08 19:08:10;;;;;;;3.00;1.20;;;;;;;17.42;100.00;101967.91;21217797;27;20521;-76
2022/10/08 19:18:12;;;;;;;2.42;1.17;;;;;;;18.07;100.00;102098.09;21217862;27;20043;-75
2022/10/08 19:28:13;;;;;;;2.42;0.90;;;;;;;18.06;100.00;102096.38;21216153;27;20514;-76
2022/10/08 19:38:15;;;;;;;2.53;0.80;;;;;;;17.98;100.00;102098.72;21215399;27;20047;-77
2022/10/08 19:48:16;;;;;;;2.67;1.00;;;;;;;18.05;100.00;102118.03;21214213;27;20051;-75
2022/10/08 19:58:18;;;;;;;2.55;0.75;;;;;;;18.04;100.00;102119.84;21129085;27;20055;-76
2022/10/08 20:08:19;;;;;;;1.75;0.98;;;;;;;18.03;100.00;102128.91;21214739;27;20049;-76
2022/10/08 20:18:21;;;;;;;2.60;1.30;;;;;;;18.03;100.00;102134.31;21213930;27;20511;-76
2022/10/08 20:28:22;;;;;;;2.25;0.90;;;;;;;18.02;100.00;102139.81;21210816;27;20074;-76
2022/10/08 20:38:24;;;;;;;1.70;0.82;;;;;;;18.00;100.00;102156.03;21213173;27;20055;-76
2022/10/08 20:48:25;;;;;;;1.95;1.00;;;;;;;18.01;100.00;102155.09;21212348;27;20055;-76
2022/10/08 20:58:28;;;;;;;2.40;1.10;;;;;;;17.92;100.00;102142.25;21156438;27;20035;-76
2022/10/08 21:08:29;;;;;;;2.13;0.88;;;;;;;18.00;100.00;102172.22;21212322;27;20051;-76
2022/10/08 21:18:32;;;;;;;2.42;0.85;;;;;;;17.64;100.00;102117.19;21210728;27;20403;-76
2022/10/08 21:28:33;;;;;;;1.50;0.80;;;;;;;17.98;100.00;102171.47;21211401;27;20101;-76
2022/10/08 21:38:35;;;;;;;1.92;0.85;;;;;;;17.95;100.00;102169.84;21216058;27;20747;-77
2022/10/08 21:48:37;;;;;;;2.45;1.08;;;;;;;17.62;100.00;102119.13;21193218;27;20484;-75
2022/10/08 21:58:41;;;;;;;2.40;1.10;;;;;;;17.96;100.00;102178.78;21181341;27;20054;-75
2022/10/08 22:08:42;;;;;;;1.20;0.70;;;;;;;17.88;100.00;102162.28;21224991;27;20499;-76
2022/10/08 22:18:44;;;;;;;1.70;0.80;;;;;;;17.95;100.00;102188.72;21223172;27;20130;-76
2022/10/08 22:28:47;;;;;;;1.80;0.70;;;;;;;17.94;100.00;102181.59;21223109;27;20066;-75
2022/10/08 22:38:49;;;;;;;1.30;0.70;;;;;;;17.84;100.00;102172.41;21220308;27;20126;-76
2022/10/08 22:48:51;;;;;;;1.58;0.73;;;;;;;17.93;100.00;102182.56;21174388;27;20047;-76
2022/10/08 22:58:52;;;;;;;1.70;0.77;;;;;;;17.93;100.00;102173.59;21219852;27;20130;-76
2022/10/08 23:08:56;;;;;;;1.98;0.70;;;;;;;17.93;100.00;102179.00;21219193;27;20104;-76
2022/10/08 23:19:04;;;;;;;2.00;0.85;;;;;;;17.70;100.00;102154.50;21218535;27;20054;-76
2022/10/08 23:29:06;;;;;;;1.17;0.68;;;;;;;17.70;100.00;102154.50;21218087;27;20092;-76
2022/10/08 23:39:10;;;;;;;1.45;0.60;;;;;;;17.81;100.00;102161.84;21216968;27;20055;-76
2022/10/08 23:49:12;;;;;;;1.30;0.57;;;;;;;17.92;100.00;102190.75;21131812;27;20047;-76
2022/10/08 23:59:13;;;;;;;1.52;0.70;;;;;;;17.90;100.00;102189.97;21214930;27;20284;-76
